Time;durP1;ratioP1;P1;durP2;ratioP2;P2;SDS_P1;SDS_P2;PMS_P1;PMS_P2;Temp;Humidity;BMP_temperature;BMP_pressure;BME280_temperature;BME280_humidity;BME280_pressure;Samples;Min_cycle;Max_cycle;Signal;HPM_P1;HPM_P2
2021/12/05 00:23:37;;;;;;;2.50;0.80;;;2.10;99.90;;;;;;4944706;29;20759;-66
2021/12/05 00:26:05;;;;;;;3.20;1.00;;;2.20;99.90;;;;;;4970746;28;20459;-66
2021/12/05 00:52:16;;;;;;;4.17;1.17;;;2.20;99.90;;;;;;4970304;28;20535;-66
2021/12/05 00:57:45;;;;;;;3.80;2.10;;;2.10;99.90;;;;;;4969719;28;20494;-66
2021/12/05 01:00:49;;;;;;;3.20;1.10;;;2.20;99.90;;;;;;4968212;28;20423;-65
2021/12/05 01:03:36;;;;;;;4.90;1.10;;;2.20;99.90;;;;;;4969893;28;20412;-65
2021/12/05 01:11:28;;;;;;;1.77;0.80;;;2.10;99.90;;;;;;4969778;28;20435;-65
2021/12/05 01:16:35;;;;;;;1.50;0.70;;;2.00;99.90;;;;;;4976744;28;20435;-65
2021/12/05 01:19:01;;;;;;;1.47;0.60;;;2.00;99.90;;;;;;4975202;28;20550;-66
2021/12/05 01:21:28;;;;;;;3.10;0.90;;;2.00;99.90;;;;;;4979002;28;20798;-66
2021/12/05 01:24:01;;;;;;;2.30;1.20;;;2.00;99.90;;;;;;4983429;28;20429;-65
2021/12/05 01:26:35;;;;;;;1.40;0.77;;;2.00;99.90;;;;;;4979568;28;20759;-66
2021/12/05 01:47:35;;;;;;;1.90;0.77;;;2.00;99.90;;;;;;4969281;28;20901;-65
2021/12/05 01:55:19;;;;;;;7.70;1.27;;;2.00;99.90;;;;;;4975051;28;20438;-66
2021/12/05 02:11:47;;;;;;;2.60;1.17;;;2.00;99.90;;;;;;4980197;28;20434;-65
2021/12/05 02:33:33;;;;;;;3.13;1.20;;;2.00;99.90;;;;;;4968824;28;20469;-65
2021/12/05 02:41:33;;;;;;;4.30;1.17;;;2.00;99.90;;;;;;4968408;28;20446;-65
2021/12/05 02:44:03;;;;;;;2.40;1.13;;;2.00;99.90;;;;;;4968736;28;20436;-65
2021/12/05 02:46:30;;;;;;;2.90;1.30;;;2.10;99.90;;;;;;4968238;28;20514;-66
2021/12/05 02:49:03;;;;;;;4.50;1.30;;;2.10;99.90;;;;;;4968460;28;20428;-65
2021/12/05 02:51:30;;;;;;;2.53;0.93;;;2.00;99.90;;;;;;4968637;28;20432;-65
2021/12/05 02:56:31;;;;;;;1.90;0.73;;;2.00;99.90;;;;;;4967915;28;20439;-65
2021/12/05 02:59:03;;;;;;;1.57;0.63;;;2.10;99.90;;;;;;4968579;28;20472;-65
2021/12/05 03:01:42;;;;;;;7.90;0.77;;;2.10;99.90;;;;;;4979591;28;20728;-65
2021/12/05 03:04:09;;;;;;;3.67;1.00;;;2.00;99.90;;;;;;4978986;28;20414;-65
2021/12/05 03:06:36;;;;;;;1.73;0.70;;;2.00;99.90;;;;;;4972546;28;20842;-65
2021/12/05 03:09:08;;;;;;;2.03;1.00;;;2.10;99.90;;;;;;4968403;28;20462;-65
2021/12/05 03:11:35;;;;;;;2.00;0.80;;;2.10;99.90;;;;;;4968124;28;20911;-65
2021/12/05 03:14:01;;;;;;;1.60;0.90;;;2.10;99.90;;;;;;4967876;28;20419;-65
2021/12/05 03:16:28;;;;;;;2.47;0.90;;;2.10;99.90;;;;;;4967995;28;20940;-65
2021/12/05 03:18:54;;;;;;;3.80;1.80;;;2.10;99.90;;;;;;4968454;28;20220;-65
2021/12/05 03:21:20;;;;;;;3.93;0.93;;;2.10;99.90;;;;;;4968744;28;20489;-65
2021/12/05 03:23:49;;;;;;;1.47;0.80;;;2.10;99.90;;;;;;4987592;28;20515;-66
2021/12/05 03:26:20;;;;;;;3.10;1.10;;;2.10;99.90;;;;;;4980221;28;20671;-65
2021/12/05 03:28:49;;;;;;;1.50;0.90;;;2.10;99.90;;;;;;4980566;28;20488;-65
2021/12/05 03:31:16;;;;;;;7.33;0.70;;;2.10;99.90;;;;;;4974455;28;20474;-65
2021/12/05 03:33:42;;;;;;;4.00;0.97;;;2.10;99.90;;;;;;4977668;28;20735;-65
2021/12/05 03:36:09;;;;;;;5.67;1.10;;;2.10;99.90;;;;;;4971789;28;20435;-65
2021/12/05 03:38:36;;;;;;;1.57;0.90;;;2.10;99.90;;;;;;4976081;28;20329;-65
2021/12/05 03:41:03;;;;;;;4.80;1.33;;;2.10;99.90;;;;;;4971340;28;20500;-65
2021/12/05 03:43:30;;;;;;;5.00;1.10;;;2.10;99.90;;;;;;4971483;28;21056;-65
2021/12/05 03:45:57;;;;;;;1.60;0.90;;;2.10;99.90;;;;;;4971015;28;20451;-65
2021/12/05 03:48:26;;;;;;;4.17;1.20;;;2.10;99.90;;;;;;4971447;28;20525;-65
2021/12/05 03:50:53;;;;;;;1.93;0.80;;;2.10;99.90;;;;;;4978528;28;20805;-65
2021/12/05 03:53:19;;;;;;;2.80;0.90;;;2.10;99.90;;;;;;4982449;28;20442;-65
2021/12/05 03:55:48;;;;;;;3.37;0.60;;;2.00;99.90;;;;;;4971106;28;20427;-65
2021/12/05 03:58:15;;;;;;;5.33;1.20;;;2.10;99.90;;;;;;4971076;28;20475;-65
2021/12/05 04:00:44;;;;;;;2.57;0.87;;;2.00;99.90;;;;;;4977881;28;20490;-65
2021/12/05 04:03:12;;;;;;;3.37;1.07;;;2.00;99.90;;;;;;4974864;28;20455;-65
2021/12/05 04:05:39;;;;;;;5.77;1.20;;;1.90;99.90;;;;;;4970369;28;20542;-65
2021/12/05 04:08:08;;;;;;;1.87;0.80;;;1.90;99.90;;;;;;4970561;28;21027;-65
2021/12/05 04:10:36;;;;;;;8.10;0.80;;;1.90;99.90;;;;;;4971238;28;20432;-65
2021/12/05 04:13:03;;;;;;;2.87;1.00;;;1.90;99.90;;;;;;4970341;28;20427;-66
2021/12/05 04:15:29;;;;;;;2.70;0.70;;;1.90;99.90;;;;;;4970509;28;20431;-65
2021/12/05 04:17:56;;;;;;;5.17;1.33;;;1.90;99.90;;;;;;4984110;28;20472;-65
2021/12/05 04:20:22;;;;;;;1.40;0.67;;;1.90;99.90;;;;;;4979253;28;20235;-64
2021/12/05 04:22:48;;;;;;;3.93;1.50;;;1.90;99.90;;;;;;4980169;28;20518;-64
2021/12/05 04:25:16;;;;;;;3.53;1.13;;;1.90;99.90;;;;;;4988527;28;20528;-64
2021/12/05 04:27:44;;;;;;;1.37;0.70;;;1.90;99.90;;;;;;4982676;28;20435;-64
2021/12/05 04:30:13;;;;;;;4.03;0.90;;;2.00;99.90;;;;;;4981119;28;20486;-64
2021/12/05 04:32:38;;;;;;;1.30;0.70;;;1.90;99.90;;;;;;4970134;28;20563;-64
2021/12/05 04:35:05;;;;;;;3.20;0.90;;;1.90;99.90;;;;;;4969949;28;20516;-64
2021/12/05 04:37:31;;;;;;;3.53;0.90;;;1.90;99.90;;;;;;4969241;28;20228;-64
2021/12/05 04:39:57;;;;;;;1.60;0.70;;;1.90;99.90;;;;;;4977620;28;21022;-64
2021/12/05 04:42:23;;;;;;;1.70;0.60;;;1.90;99.90;;;;;;4987114;28;20184;-64
2021/12/05 04:44:49;;;;;;;2.47;0.90;;;1.90;99.90;;;;;;4975184;28;20461;-64
2021/12/05 04:47:15;;;;;;;2.07;0.90;;;1.90;99.90;;;;;;4970011;28;20432;-64
2021/12/05 04:49:41;;;;;;;1.50;0.80;;;1.80;99.90;;;;;;4971721;28;20435;-64
2021/12/05 04:52:09;;;;;;;3.40;0.63;;;1.80;99.90;;;;;;4974476;28;20575;-67
2021/12/05 04:54:35;;;;;;;2.70;0.80;;;1.80;99.90;;;;;;4972802;28;20619;-67
2021/12/05 04:57:01;;;;;;;2.50;0.67;;;1.80;99.90;;;;;;4979423;28;20427;-64
2021/12/05 04:59:28;;;;;;;2.07;0.87;;;1.80;99.90;;;;;;4969787;28;20230;-65
2021/12/05 05:01:59;;;;;;;4.90;0.87;;;1.70;99.90;;;;;;4976283;28;20191;-64
2021/12/05 05:04:28;;;;;;;5.27;1.17;;;1.60;99.90;;;;;;4969379;28;20975;-64
2021/12/05 05:07:02;;;;;;;1.80;0.90;;;1.60;99.90;;;;;;4969390;28;20427;-64
2021/12/05 05:09:28;;;;;;;4.83;0.90;;;1.50;99.90;;;;;;4969638;28;20461;-64
2021/12/05 05:11:54;;;;;;;1.20;0.60;;;1.50;99.90;;;;;;4969635;28;20423;-64
2021/12/05 05:14:20;;;;;;;6.63;0.80;;;1.50;99.90;;;;;;4969665;28;20920;-65
2021/12/05 05:16:48;;;;;;;2.80;0.70;;;1.40;99.90;;;;;;4975644;28;20526;-65
2021/12/05 05:19:16;;;;;;;1.70;0.70;;;1.40;99.90;;;;;;4969572;28;20232;-65
2021/12/05 05:22:07;;;;;;;1.70;0.80;;;1.40;99.90;;;;;;4976332;28;20433;-64
2021/12/05 05:25:18;;;;;;;1.33;0.63;;;1.40;99.90;;;;;;4973809;28;20557;-65
2021/12/05 05:41:03;;;;;;;3.30;1.00;;;1.30;99.90;;;;;;4969387;28;20519;-64
2021/12/05 05:48:43;;;;;;;1.53;0.60;;;1.20;99.90;;;;;;4958417;28;20203;-64
2021/12/05 05:51:10;;;;;;;8.63;1.33;;;1.20;99.90;;;;;;4975569;28;20463;-64
2021/12/05 05:53:37;;;;;;;3.97;1.07;;;1.10;99.90;;;;;;4968925;28;20420;-64
2021/12/05 05:56:04;;;;;;;6.40;1.37;;;1.10;99.90;;;;;;4979366;28;20430;-64
2021/12/05 05:58:43;;;;;;;8.57;1.70;;;1.10;99.90;;;;;;4968528;28;20514;-64
2021/12/05 06:01:19;;;;;;;8.73;1.03;;;1.00;99.90;;;;;;4974134;28;20427;-64
2021/12/05 06:03:46;;;;;;;3.67;1.30;;;1.00;99.90;;;;;;4970568;28;20473;-64
2021/12/05 06:06:14;;;;;;;5.07;1.27;;;1.00;99.90;;;;;;4972895;28;20423;-64
2021/12/05 06:08:43;;;;;;;2.13;1.10;;;1.00;99.90;;;;;;4968576;28;20458;-65
2021/12/05 06:11:14;;;;;;;2.30;1.17;;;1.00;99.90;;;;;;4968813;28;20467;-64
2021/12/05 06:13:40;;;;;;;8.20;1.10;;;1.10;99.90;;;;;;4968440;28;20924;-64
2021/12/05 06:16:08;;;;;;;1.87;1.00;;;1.00;99.90;;;;;;4968104;28;20461;-64
2021/12/05 06:18:34;;;;;;;3.00;1.27;;;1.10;99.90;;;;;;4968396;28;20463;-64
2021/12/05 06:21:00;;;;;;;6.13;1.07;;;1.10;99.90;;;;;;4971891;28;20418;-64
2021/12/05 06:23:26;;;;;;;5.17;0.90;;;1.10;99.90;;;;;;4981035;28;20426;-64
2021/12/05 06:25:53;;;;;;;1.30;0.70;;;1.20;99.90;;;;;;4978897;28;20833;-64
2021/12/05 06:28:27;;;;;;;1.30;0.70;;;1.20;99.90;;;;;;4992401;28;20206;-64
2021/12/05 06:41:52;;;;;;;6.63;1.40;;;1.00;99.90;;;;;;4968221;28;20474;-64
2021/12/05 06:47:05;;;;;;;2.07;1.20;;;1.00;99.90;;;;;;4967692;28;20515;-64
2021/12/05 06:49:31;;;;;;;4.80;1.07;;;1.00;99.90;;;;;;4968211;28;20817;-64
2021/12/05 06:51:57;;;;;;;5.07;1.50;;;1.00;99.90;;;;;;4968182;28;20423;-64
2021/12/05 06:54:24;;;;;;;3.97;1.00;;;1.00;99.90;;;;;;4977635;28;20271;-64
2021/12/05 06:56:50;;;;;;;3.17;1.03;;;1.10;99.90;;;;;;4973201;28;20926;-64
2021/12/05 06:59:16;;;;;;;3.83;1.23;;;1.10;99.90;;;;;;4980585;28;20470;-64
2021/12/05 07:01:42;;;;;;;3.40;1.10;;;1.10;99.90;;;;;;4979592;28;20426;-64
2021/12/05 07:04:20;;;;;;;2.40;0.93;;;1.10;99.90;;;;;;4971785;28;21089;-64
2021/12/05 07:06:46;;;;;;;7.13;1.47;;;1.10;99.90;;;;;;4971714;28;20507;-64
2021/12/05 07:09:12;;;;;;;2.37;1.13;;;1.10;99.90;;;;;;4973134;28;20428;-64
2021/12/05 07:11:58;;;;;;;2.90;0.90;;;1.00;99.90;;;;;;4989882;28;20195;-64
2021/12/05 07:14:37;;;;;;;14.77;1.33;;;1.00;99.90;;;;;;4972176;28;20317;-64
2021/12/05 07:20:02;;;;;;;4.97;2.07;;;1.00;99.90;;;;;;4971689;28;20530;-64
2021/12/05 07:22:44;;;;;;;5.93;2.13;;;1.00;99.90;;;;;;4976616;28;20614;-63
2021/12/05 07:25:26;;;;;;;3.70;1.90;;;1.00;99.90;;;;;;4983858;28;20489;-63
2021/12/05 07:43:55;;;;;;;4.47;1.30;;;0.90;99.90;;;;;;4985472;28;20927;-64
2021/12/05 07:46:20;;;;;;;3.00;1.23;;;0.90;99.90;;;;;;4987823;28;20414;-64
2021/12/05 07:48:47;;;;;;;1.70;0.70;;;0.90;99.90;;;;;;4983587;28;20191;-64
2021/12/05 07:59:08;;;;;;;;;;;;;;;;;;;;;
2021/12/05 08:15:19;;;;;;;3.07;1.57;;;1.10;99.90;;;;;;4985403;28;20844;-64
2021/12/05 08:17:53;;;;;;;3.73;1.60;;;1.20;99.90;;;;;;4970840;28;20455;-64
2021/12/05 08:20:35;;;;;;;2.07;0.97;;;1.30;99.90;;;;;;4970264;28;20459;-63
2021/12/05 08:23:02;;;;;;;9.67;2.47;;;1.30;99.90;;;;;;4972782;28;21200;-64
2021/12/05 08:25:31;;;;;;;6.47;2.17;;;1.40;99.90;;;;;;4984847;28;20451;-63
2021/12/05 08:31:11;;;;;;;10.00;2.80;;;1.50;99.90;;;;;;4967707;28;20419;-64
2021/12/05 08:34:01;;;;;;;8.97;2.50;;;1.60;99.90;;;;;;4987656;28;20489;-64
2021/12/05 09:20:47;;;;;;;3.20;1.27;;;2.40;99.90;;;;;;4969956;28;20506;-65
2021/12/05 09:39:25;;;;;;;2.17;1.07;;;3.20;99.90;;;;;;4974884;28;20477;-67
2021/12/05 10:06:49;;;;;;;3.53;0.83;;;3.60;99.90;;;;;;4968451;28;20422;-65
2021/12/05 10:09:57;;;;;;;3.70;1.40;;;3.70;99.90;;;;;;4968955;28;20428;-65
2021/12/05 10:27:10;;;;;;;2.90;1.10;;;4.70;99.90;;;;;;4981635;28;21485;-69
2021/12/05 10:38:59;;;;;;;1.60;0.90;;;5.20;99.90;;;;;;4977032;28;20984;-69
2021/12/05 10:44:01;;;;;;;3.00;1.17;;;5.40;99.90;;;;;;4981050;28;20514;-69
2021/12/05 10:46:29;;;;;;;2.23;0.73;;;5.60;99.90;;;;;;4969319;28;20960;-69
2021/12/05 10:49:09;;;;;;;1.40;0.60;;;5.30;99.90;;;;;;4975705;28;20447;-69
2021/12/05 10:51:49;;;;;;;1.53;0.90;;;5.30;99.90;;;;;;4968651;28;20420;-69
2021/12/05 10:54:20;;;;;;;4.03;1.00;;;5.10;99.90;;;;;;4970320;28;20490;-69
2021/12/05 10:56:54;;;;;;;5.57;1.00;;;5.30;99.90;;;;;;4971764;28;21311;-69
2021/12/05 10:59:24;;;;;;;2.03;0.87;;;5.40;99.90;;;;;;4968508;28;20471;-69
2021/12/05 11:01:56;;;;;;;8.33;1.13;;;5.60;99.90;;;;;;4968257;28;20943;-69
2021/12/05 11:04:28;;;;;;;3.03;1.20;;;5.70;99.90;;;;;;4978685;28;20450;-67
2021/12/05 11:07:13;;;;;;;9.73;1.03;;;5.80;99.90;;;;;;4967258;28;20432;-66
2021/12/05 11:09:43;;;;;;;2.73;1.00;;;6.00;99.90;;;;;;4968613;28;20502;-67
2021/12/05 11:12:14;;;;;;;2.50;0.80;;;6.10;99.90;;;;;;4974591;28;20507;-67
2021/12/05 11:14:48;;;;;;;3.43;1.27;;;5.90;99.90;;;;;;4972608;28;20418;-67
2021/12/05 11:17:16;;;;;;;2.57;0.80;;;5.70;99.90;;;;;;4977278;28;20498;-67
2021/12/05 11:19:47;;;;;;;3.60;1.00;;;5.40;99.90;;;;;;4981593;28;20971;-68
2021/12/05 11:22:16;;;;;;;4.47;0.97;;;5.30;99.90;;;;;;4983255;28;20418;-67
2021/12/05 11:24:53;;;;;;;1.30;0.77;;;5.00;99.90;;;;;;4984316;28;20426;-68
2021/12/05 11:27:25;;;;;;;4.47;1.63;;;4.90;99.90;;;;;;4984064;28;20792;-67
2021/12/05 11:30:09;;;;;;;3.13;1.23;;;4.60;99.90;;;;;;4987330;28;20425;-67
2021/12/05 11:32:47;;;;;;;5.43;1.27;;;4.60;99.90;;;;;;4981137;28;20433;-68
2021/12/05 11:35:21;;;;;;;7.73;1.70;;;4.60;99.90;;;;;;4980872;28;20423;-67
2021/12/05 11:38:00;;;;;;;2.13;0.80;;;4.70;99.90;;;;;;4979827;28;20469;-67
2021/12/05 11:40:30;;;;;;;1.90;0.97;;;4.50;99.90;;;;;;4974441;28;20982;-67
2021/12/05 11:43:04;;;;;;;2.07;1.10;;;4.70;99.90;;;;;;4972293;28;20522;-68
2021/12/05 11:45:47;;;;;;;4.20;1.20;;;4.60;99.90;;;;;;4977667;28;20420;-67
2021/12/05 11:48:21;;;;;;;4.03;0.80;;;4.50;99.90;;;;;;4985071;28;20507;-68
2021/12/05 11:50:47;;;;;;;3.00;0.80;;;4.50;99.90;;;;;;4977997;28;20486;-68
2021/12/05 11:53:13;;;;;;;1.67;0.73;;;4.30;99.90;;;;;;4979136;28;20425;-67
2021/12/05 11:55:40;;;;;;;1.40;0.60;;;4.40;99.90;;;;;;4985215;28;20454;-69
2021/12/05 11:58:18;;;;;;;1.93;0.90;;;4.80;99.90;;;;;;4976897;28;20552;-68
2021/12/05 12:00:44;;;;;;;2.50;0.60;;;4.70;99.90;;;;;;4985163;28;20427;-68
2021/12/05 12:03:10;;;;;;;1.60;0.70;;;4.60;99.90;;;;;;4990760;28;20550;-68
2021/12/05 12:05:37;;;;;;;2.13;0.70;;;4.50;99.90;;;;;;4977781;28;20510;-68
2021/12/05 12:08:08;;;;;;;1.20;0.50;;;4.50;99.90;;;;;;4990174;28;20427;-68
2021/12/05 12:10:49;;;;;;;1.30;0.60;;;4.60;99.90;;;;;;4993089;28;20496;-68
2021/12/05 12:13:20;;;;;;;2.30;0.80;;;4.60;99.90;;;;;;4992779;28;20518;-68
2021/12/05 12:15:57;;;;;;;1.20;0.50;;;4.70;99.90;;;;;;4987497;28;20427;-68
2021/12/05 12:18:29;;;;;;;1.27;0.67;;;4.70;99.90;;;;;;4978476;28;20940;-67
2021/12/05 12:20:56;;;;;;;2.50;0.63;;;4.60;99.90;;;;;;4978823;28;20460;-68
2021/12/05 12:23:23;;;;;;;1.40;0.60;;;4.50;99.90;;;;;;4992898;28;20427;-68
2021/12/05 12:25:54;;;;;;;1.87;0.60;;;4.40;99.90;;;;;;4979166;28;21306;-68
2021/12/05 12:28:20;;;;;;;1.57;0.90;;;4.60;99.90;;;;;;4981016;28;20443;-68
2021/12/05 12:30:55;;;;;;;3.07;1.03;;;4.70;99.90;;;;;;4975098;28;20503;-68
2021/12/05 12:33:27;;;;;;;9.00;1.73;;;4.60;99.90;;;;;;4978300;28;20458;-68
2021/12/05 12:35:52;;;;;;;1.80;1.10;;;4.60;99.90;;;;;;4969427;28;20443;-68
2021/12/05 12:38:32;;;;;;;4.20;0.90;;;4.70;99.90;;;;;;4972981;28;20468;-68
2021/12/05 12:41:14;;;;;;;2.47;0.90;;;4.70;99.90;;;;;;4969954;28;20176;-67
2021/12/05 12:43:52;;;;;;;1.60;0.90;;;4.70;99.90;;;;;;4969476;28;20943;-67
2021/12/05 12:46:17;;;;;;;2.70;0.80;;;4.60;99.90;;;;;;4969561;28;20420;-68
2021/12/05 12:48:43;;;;;;;3.10;1.60;;;4.40;99.90;;;;;;4969794;28;20423;-67
2021/12/05 12:51:43;;;;;;;2.43;0.80;;;4.40;99.90;;;;;;4969705;28;20192;-67
2021/12/05 12:54:17;;;;;;;3.30;1.40;;;4.20;99.90;;;;;;4966707;28;20208;-67
2021/12/05 12:57:00;;;;;;;3.10;0.70;;;4.20;99.90;;;;;;4967703;28;20431;-67
2021/12/05 12:59:30;;;;;;;1.97;0.90;;;4.10;99.90;;;;;;4972198;28;20462;-67
2021/12/05 13:10:40;;;;;;;1.37;0.60;;;4.10;99.90;;;;;;4969914;28;20404;-68
2021/12/05 13:13:20;;;;;;;1.97;1.03;;;4.10;99.90;;;;;;4974563;28;20462;-67
2021/12/05 13:15:53;;;;;;;1.30;0.63;;;4.10;99.90;;;;;;4968519;28;20481;-67
2021/12/05 13:18:23;;;;;;;2.63;1.07;;;4.10;99.90;;;;;;4968665;28;20507;-67
2021/12/05 13:20:56;;;;;;;2.87;0.60;;;4.20;99.90;;;;;;4968887;28;20420;-68
2021/12/05 13:23:31;;;;;;;2.10;0.83;;;4.30;99.90;;;;;;4981522;28;20483;-68
2021/12/05 13:26:11;;;;;;;1.77;1.07;;;4.30;99.90;;;;;;4975473;28;20506;-67
2021/12/05 13:28:52;;;;;;;1.80;0.67;;;4.30;99.90;;;;;;4982276;28;20428;-67
2021/12/05 13:31:32;;;;;;;2.77;1.17;;;4.40;99.90;;;;;;4970912;28;20418;-67
2021/12/05 13:34:25;;;;;;;1.50;0.80;;;4.50;99.90;;;;;;4976262;28;20918;-67
2021/12/05 13:37:06;;;;;;;1.50;0.77;;;4.60;99.90;;;;;;4964856;28;20929;-66
2021/12/05 13:39:45;;;;;;;1.67;0.73;;;4.60;99.90;;;;;;4976159;28;21082;-66
2021/12/05 13:42:44;;;;;;;3.13;0.60;;;4.70;99.90;;;;;;4968087;28;21199;-66
2021/12/05 13:45:25;;;;;;;1.93;0.90;;;4.60;99.90;;;;;;4973565;28;20486;-66
2021/12/05 13:47:53;;;;;;;8.00;1.40;;;4.60;99.90;;;;;;4968267;28;20837;-66
2021/12/05 13:50:21;;;;;;;3.33;0.97;;;4.50;99.90;;;;;;4978339;28;20725;-66
2021/12/05 13:52:52;;;;;;;3.97;1.20;;;4.40;99.90;;;;;;4983033;28;20416;-67
2021/12/05 13:55:53;;;;;;;1.93;0.90;;;4.40;99.90;;;;;;4969514;28;20434;-67
2021/12/05 13:58:35;;;;;;;1.83;0.80;;;4.50;99.90;;;;;;4967627;28;20472;-67
2021/12/05 14:01:18;;;;;;;1.67;0.80;;;4.60;99.90;;;;;;4968638;28;20422;-67
2021/12/05 14:04:07;;;;;;;2.80;0.80;;;4.60;99.90;;;;;;4968421;28;20429;-67
2021/12/05 14:07:06;;;;;;;1.80;0.90;;;4.60;99.90;;;;;;4967670;28;20523;-67
2021/12/05 14:09:44;;;;;;;4.77;1.80;;;4.60;99.90;;;;;;4978558;28;20933;-66
2021/12/05 14:12:27;;;;;;;3.50;1.17;;;4.50;99.90;;;;;;4967605;28;20960;-66
2021/12/05 14:15:00;;;;;;;3.13;1.20;;;4.40;99.90;;;;;;4970585;28;20825;-66
2021/12/05 14:17:34;;;;;;;1.87;0.73;;;4.30;99.90;;;;;;4966272;28;20955;-66
2021/12/05 14:20:10;;;;;;;6.57;0.90;;;4.10;99.90;;;;;;4966453;28;20435;-66
2021/12/05 14:22:37;;;;;;;6.03;1.27;;;4.00;99.90;;;;;;4975558;28;20426;-66
2021/12/05 14:25:08;;;;;;;3.57;0.70;;;3.80;99.90;;;;;;4985119;28;20435;-66
2021/12/05 14:27:38;;;;;;;2.77;1.60;;;3.70;99.90;;;;;;4978433;28;20444;-66
2021/12/05 14:30:07;;;;;;;6.20;1.87;;;3.70;99.90;;;;;;4976838;28;20812;-66
2021/12/05 14:32:36;;;;;;;9.27;1.50;;;3.60;99.90;;;;;;4975330;28;20559;-66
2021/12/05 14:35:16;;;;;;;3.77;1.10;;;3.50;99.90;;;;;;4983149;28;20430;-66
2021/12/05 14:37:45;;;;;;;2.67;1.00;;;3.40;99.90;;;;;;4970891;28;20570;-66
2021/12/05 14:40:16;;;;;;;1.93;1.10;;;3.30;99.90;;;;;;4980501;28;20875;-66
2021/12/05 14:42:44;;;;;;;11.57;3.27;;;3.30;99.90;;;;;;4983786;28;20519;-66
2021/12/05 14:45:17;;;;;;;5.57;1.40;;;3.30;99.90;;;;;;4967105;28;20486;-66
2021/12/05 14:47:45;;;;;;;8.17;1.90;;;3.30;99.90;;;;;;4976963;28;20435;-66
2021/12/05 14:50:20;;;;;;;5.80;1.70;;;3.40;99.90;;;;;;4971849;28;21150;-66
2021/12/05 14:52:49;;;;;;;2.20;1.30;;;3.40;99.90;;;;;;4966322;28;20419;-66
2021/12/05 14:55:18;;;;;;;3.20;1.50;;;3.50;99.90;;;;;;4972155;28;20435;-66
2021/12/05 14:57:56;;;;;;;2.17;1.10;;;3.50;99.90;;;;;;4965735;28;20450;-67
2021/12/05 15:00:24;;;;;;;1.70;1.00;;;3.50;99.90;;;;;;4968966;28;20445;-68
2021/12/05 15:03:02;;;;;;;4.40;1.53;;;3.60;99.90;;;;;;4981451;28;20422;-68
2021/12/05 15:05:27;;;;;;;1.83;0.97;;;3.60;99.90;;;;;;4975489;28;20493;-68
2021/12/05 15:08:02;;;;;;;5.83;1.47;;;3.50;99.90;;;;;;4973494;28;21018;-68
2021/12/05 15:10:27;;;;;;;1.30;0.60;;;3.50;99.90;;;;;;4974745;28;20195;-66
2021/12/05 15:12:54;;;;;;;1.50;0.60;;;3.50;99.90;;;;;;4969515;28;20430;-67
2021/12/05 15:15:23;;;;;;;5.00;1.63;;;3.50;99.90;;;;;;4966005;28;20237;-66
2021/12/05 15:17:49;;;;;;;4.37;0.90;;;3.40;99.90;;;;;;4965620;28;20459;-66
2021/12/05 15:20:19;;;;;;;2.43;1.13;;;3.50;99.90;;;;;;4967055;28;20475;-66
2021/12/05 15:22:58;;;;;;;1.60;0.70;;;3.40;99.90;;;;;;4981035;28;20423;-66
2021/12/05 15:25:29;;;;;;;2.50;1.00;;;3.30;99.90;;;;;;4989658;28;20431;-65
2021/12/05 15:27:57;;;;;;;7.60;1.60;;;3.20;99.90;;;;;;4988865;28;20450;-66
2021/12/05 15:30:36;;;;;;;3.87;1.27;;;3.10;99.90;;;;;;4980007;28;20435;-66
2021/12/05 15:33:11;;;;;;;1.97;0.70;;;3.10;99.90;;;;;;4985885;28;20418;-66
2021/12/05 15:35:37;;;;;;;2.20;0.90;;;3.00;99.90;;;;;;4970391;28;20509;-66
2021/12/05 15:38:10;;;;;;;3.57;0.70;;;3.10;99.90;;;;;;4969423;28;20527;-67
2021/12/05 15:40:39;;;;;;;1.93;1.03;;;3.00;99.90;;;;;;4972035;28;20877;-68
2021/12/05 15:43:13;;;;;;;3.23;1.17;;;3.00;99.90;;;;;;4970485;28;20435;-68
2021/12/05 15:45:41;;;;;;;2.23;1.10;;;3.10;99.90;;;;;;4974823;28;21202;-68
2021/12/05 15:48:07;;;;;;;4.43;1.63;;;3.00;99.90;;;;;;4973476;28;20436;-68
2021/12/05 15:50:35;;;;;;;1.60;1.00;;;3.00;99.90;;;;;;4969530;28;20773;-66
2021/12/05 15:53:10;;;;;;;7.70;3.73;;;2.90;99.90;;;;;;4969638;28;20192;-66
2021/12/05 15:55:43;;;;;;;9.97;4.03;;;2.90;99.90;;;;;;4977425;28;20505;-67
2021/12/05 15:58:20;;;;;;;5.63;2.70;;;2.90;99.90;;;;;;4968640;28;20474;-67
2021/12/05 16:00:54;;;;;;;12.93;4.77;;;2.80;99.90;;;;;;4969192;28;20605;-68
2021/12/05 16:03:27;;;;;;;5.63;3.37;;;2.80;99.90;;;;;;4971846;28;20908;-68
2021/12/05 16:05:56;;;;;;;8.87;3.20;;;2.70;99.90;;;;;;4967965;28;20428;-68
2021/12/05 16:08:23;;;;;;;8.20;2.80;;;2.60;99.90;;;;;;4968015;28;20415;-68
2021/12/05 16:10:51;;;;;;;5.33;1.70;;;2.60;99.90;;;;;;4966807;28;21144;-68
2021/12/05 16:13:23;;;;;;;4.07;1.20;;;2.60;99.90;;;;;;4967272;28;20447;-68
2021/12/05 16:15:52;;;;;;;3.20;1.60;;;2.60;99.90;;;;;;4967707;28;20423;-68
2021/12/05 16:18:19;;;;;;;3.07;1.73;;;2.50;99.90;;;;;;4973912;28;20466;-66
2021/12/05 16:20:47;;;;;;;4.83;2.37;;;2.40;99.90;;;;;;4987983;28;20442;-66
2021/12/05 16:23:20;;;;;;;2.50;1.50;;;2.40;99.90;;;;;;4979470;28;20428;-67
2021/12/05 16:25:57;;;;;;;4.70;2.30;;;2.40;99.90;;;;;;4983977;28;20522;-67
2021/12/05 16:28:26;;;;;;;8.90;3.93;;;2.30;99.90;;;;;;4982108;28;20777;-67
2021/12/05 16:30:58;;;;;;;6.10;2.77;;;2.20;99.90;;;;;;4977495;28;20467;-67
2021/12/05 16:33:24;;;;;;;15.33;4.57;;;2.10;99.90;;;;;;4970448;28;20427;-67
2021/12/05 16:35:51;;;;;;;10.40;3.90;;;1.90;99.90;;;;;;4985780;28;20425;-68
2021/12/05 16:38:32;;;;;;;8.20;2.57;;;1.80;99.90;;;;;;4970367;28;20220;-65
2021/12/05 16:41:11;;;;;;;8.07;3.57;;;1.70;99.90;;;;;;4976368;28;20440;-65
2021/12/05 16:43:46;;;;;;;11.50;4.00;;;1.60;99.90;;;;;;4968475;28;20500;-66
2021/12/05 16:46:16;;;;;;;5.57;2.97;;;1.50;99.90;;;;;;4977260;28;20469;-68
2021/12/05 16:48:44;;;;;;;7.57;3.90;;;1.50;99.90;;;;;;4968515;28;20424;-68
2021/12/05 16:51:16;;;;;;;13.40;5.70;;;1.40;99.90;;;;;;4968563;28;20420;-67
2021/12/05 16:53:46;;;;;;;12.90;6.13;;;1.40;99.90;;;;;;4967307;28;20522;-66
2021/12/05 16:56:14;;;;;;;11.90;5.33;;;1.40;99.90;;;;;;4974443;28;20467;-66
2021/12/05 16:58:44;;;;;;;11.90;6.43;;;1.30;99.90;;;;;;4968410;28;20977;-66
2021/12/05 17:01:17;;;;;;;17.10;5.60;;;1.30;99.90;;;;;;4968445;28;20416;-66
2021/12/05 17:03:45;;;;;;;15.33;4.70;;;1.30;99.90;;;;;;4977640;28;20988;-66
2021/12/05 17:06:12;;;;;;;12.87;4.80;;;1.30;99.90;;;;;;4975847;28;20870;-67
2021/12/05 17:08:45;;;;;;;13.53;4.30;;;1.30;99.90;;;;;;4989451;28;20415;-67
2021/12/05 17:11:15;;;;;;;7.00;3.80;;;1.20;99.90;;;;;;4994689;28;20512;-67
2021/12/05 17:13:42;;;;;;;10.90;4.50;;;1.20;99.90;;;;;;4998203;28;20461;-71
2021/12/05 17:16:22;;;;;;;6.87;3.80;;;1.20;99.90;;;;;;4980674;28;20455;-66
2021/12/05 17:19:06;;;;;;;8.57;4.83;;;1.20;99.90;;;;;;4981332;28;21325;-65
2021/12/05 17:21:47;;;;;;;10.03;4.80;;;1.10;99.90;;;;;;4980767;28;20961;-65
2021/12/05 17:24:28;;;;;;;14.33;4.80;;;1.10;99.90;;;;;;4979486;28;20423;-65
2021/12/05 17:27:02;;;;;;;8.90;4.67;;;1.20;99.90;;;;;;4981363;28;21164;-65
2021/12/05 17:29:34;;;;;;;14.00;4.80;;;1.20;99.90;;;;;;4992763;28;20426;-64
2021/12/05 17:32:13;;;;;;;15.40;6.17;;;1.20;99.90;;;;;;4983853;28;20966;-66
2021/12/05 17:34:48;;;;;;;10.90;5.93;;;1.30;99.90;;;;;;4986931;28;20841;-65
2021/12/05 17:37:24;;;;;;;11.87;7.20;;;1.30;99.90;;;;;;4985969;28;20418;-65
2021/12/05 17:39:51;;;;;;;18.23;7.53;;;1.30;99.90;;;;;;4980827;28;20496;-65
2021/12/05 17:42:19;;;;;;;23.23;8.00;;;1.40;99.90;;;;;;4982630;28;20429;-65
2021/12/05 17:44:46;;;;;;;21.07;9.43;;;1.40;99.90;;;;;;4981015;28;20423;-65
2021/12/05 17:47:13;;;;;;;27.40;10.47;;;1.40;99.90;;;;;;4988867;28;20431;-65
2021/12/05 17:49:42;;;;;;;19.10;7.67;;;1.40;99.90;;;;;;4983307;28;20418;-65
2021/12/05 17:52:10;;;;;;;12.43;5.87;;;1.40;99.90;;;;;;4982903;28;20443;-65
2021/12/05 17:54:52;;;;;;;11.13;3.90;;;1.40;99.90;;;;;;4980732;28;20506;-65
2021/12/05 17:57:30;;;;;;;4.90;2.67;;;1.30;99.90;;;;;;4979289;28;20510;-65
2021/12/05 18:00:13;;;;;;;3.73;1.67;;;1.20;99.90;;;;;;4975054;28;20470;-65
2021/12/05 18:02:53;;;;;;;7.00;2.07;;;1.10;99.90;;;;;;4984768;28;20423;-65
2021/12/05 18:05:46;;;;;;;2.97;2.30;;;1.00;99.90;;;;;;4974322;28;21418;-65
2021/12/05 18:08:15;;;;;;;3.53;1.60;;;1.00;99.90;;;;;;4985289;28;20436;-65
2021/12/05 18:10:48;;;;;;;6.10;1.93;;;1.00;99.90;;;;;;4976566;28;20478;-65
2021/12/05 18:13:15;;;;;;;3.20;1.30;;;1.00;99.90;;;;;;4983003;28;20418;-65
2021/12/05 18:15:48;;;;;;;2.70;1.80;;;1.00;99.90;;;;;;4980610;28;20431;-64
2021/12/05 18:18:16;;;;;;;5.20;2.37;;;1.00;99.90;;;;;;4987740;28;20467;-64
2021/12/05 18:20:42;;;;;;;6.37;2.80;;;1.00;99.90;;;;;;4979851;28;20423;-64
2021/12/05 18:23:09;;;;;;;8.53;3.83;;;1.00;99.90;;;;;;4986471;28;20431;-64
2021/12/05 18:25:37;;;;;;;12.40;4.43;;;1.10;99.90;;;;;;4987377;28;20977;-64
2021/12/05 18:28:04;;;;;;;69.17;22.40;;;1.10;99.90;;;;;;4986114;28;20423;-64
2021/12/05 18:30:30;;;;;;;52.33;21.00;;;1.10;99.90;;;;;;4989460;28;20478;-64
2021/12/05 18:32:58;;;;;;;44.23;16.83;;;1.00;99.90;;;;;;4988856;28;20497;-64
2021/12/05 18:35:30;;;;;;;28.93;11.00;;;0.90;99.90;;;;;;4978291;28;20642;-64
2021/12/05 18:37:57;;;;;;;19.13;9.07;;;0.90;99.90;;;;;;4983123;28;20955;-65
2021/12/05 18:40:23;;;;;;;39.80;11.77;;;0.90;99.90;;;;;;4986868;28;20435;-64